Richland, Mississippi
Current Conditions -  °F | °C
As of 6:54 PM on Thursday 27 Nov 2014 (Local Time) from KJAN Reporting Station
Clear Clear  
Wind Chill: 33°   Ceiling: Unl
Heat Index: 38°   Visibility: 10mi
Dew Point: 30°   Wind: 6mph
Humidity: 73%   Direction: 350°N
Pressure: 30.46"   Gusts: NA
Location:  32.2326°N, 90.165°W
Report Text: KJAN 280054Z 35005KT 10SM CLR 03/M01 A3046 RMK AO2 SLP317 T00331011
Loading
Personal Weather Stations






























Interactive Weather Map New forecast layout! Learn more

10-Day Weather Forecast

Advertisements
Track Severe Weather on mobile